sensor_id;sensor_type;location;lat;lon;timestamp;P1;durP1;ratioP1;P2;durP2;ratioP2
77234;SDS011;66253;50.526;14.974;2023-09-18T00:00:23;7.60;;;4.10;;
77234;SDS011;66253;50.526;14.974;2023-09-18T00:02:51;7.40;;;4.80;;
77234;SDS011;66253;50.526;14.974;2023-09-18T00:05:20;6.30;;;4.10;;
77234;SDS011;66253;50.526;14.974;2023-09-18T00:07:48;6.40;;;3.80;;
77234;SDS011;66253;50.526;14.974;2023-09-18T00:10:16;8.90;;;4.10;;
77234;SDS011;66253;50.526;14.974;2023-09-18T00:12:44;8.60;;;4.40;;
77234;SDS011;66253;50.526;14.974;2023-09-18T00:15:13;6.90;;;4.00;;
77234;SDS011;66253;50.526;14.974;2023-09-18T00:17:41;7.60;;;4.10;;
77234;SDS011;66253;50.526;14.974;2023-09-18T00:20:09;7.00;;;4.20;;
77234;SDS011;66253;50.526;14.974;2023-09-18T00:22:38;6.80;;;4.40;;
77234;SDS011;66253;50.526;14.974;2023-09-18T00:25:07;8.40;;;4.60;;
77234;SDS011;66253;50.526;14.974;2023-09-18T00:27:35;7.50;;;4.10;;
77234;SDS011;66253;50.526;14.974;2023-09-18T00:30:04;7.00;;;3.70;;
77234;SDS011;66253;50.526;14.974;2023-09-18T00:32:33;5.80;;;4.00;;
77234;SDS011;66253;50.526;14.974;2023-09-18T00:35:02;7.40;;;5.20;;
77234;SDS011;66253;50.526;14.974;2023-09-18T00:37:32;7.40;;;4.80;;
77234;SDS011;66253;50.526;14.974;2023-09-18T00:40:00;6.70;;;4.50;;
77234;SDS011;66253;50.526;14.974;2023-09-18T00:42:31;6.90;;;4.40;;
77234;SDS011;66253;50.526;14.974;2023-09-18T00:44:59;8.10;;;4.20;;
77234;SDS011;66253;50.526;14.974;2023-09-18T00:47:29;6.70;;;4.00;;
77234;SDS011;66253;50.526;14.974;2023-09-18T00:49:58;6.70;;;4.40;;
77234;SDS011;66253;50.526;14.974;2023-09-18T00:52:27;6.80;;;4.10;;
77234;SDS011;66253;50.526;14.974;2023-09-18T00:54:55;9.30;;;4.60;;
77234;SDS011;66253;50.526;14.974;2023-09-18T00:57:23;7.40;;;4.00;;
77234;SDS011;66253;50.526;14.974;2023-09-18T00:59:52;7.30;;;4.80;;
77234;SDS011;66253;50.526;14.974;2023-09-18T01:02:20;6.20;;;4.30;;
77234;SDS011;66253;50.526;14.974;2023-09-18T01:04:49;7.00;;;4.20;;
77234;SDS011;66253;50.526;14.974;2023-09-18T01:07:17;6.30;;;4.50;;
77234;SDS011;66253;50.526;14.974;2023-09-18T01:09:46;7.60;;;4.00;;
77234;SDS011;66253;50.526;14.974;2023-09-18T01:12:16;8.50;;;4.30;;
77234;SDS011;66253;50.526;14.974;2023-09-18T01:14:54;5.60;;;3.90;;
77234;SDS011;66253;50.526;14.974;2023-09-18T01:17:34;7.00;;;3.90;;
77234;SDS011;66253;50.526;14.974;2023-09-18T01:20:04;7.00;;;4.10;;
77234;SDS011;66253;50.526;14.974;2023-09-18T01:22:35;6.90;;;4.20;;
77234;SDS011;66253;50.526;14.974;2023-09-18T01:25:04;7.40;;;5.10;;
77234;SDS011;66253;50.526;14.974;2023-09-18T01:30:00;7.80;;;4.20;;
77234;SDS011;66253;50.526;14.974;2023-09-18T01:32:30;7.70;;;4.20;;
77234;SDS011;66253;50.526;14.974;2023-09-18T01:35:02;6.80;;;4.60;;
77234;SDS011;66253;50.526;14.974;2023-09-18T01:37:32;7.00;;;3.90;;
77234;SDS011;66253;50.526;14.974;2023-09-18T01:40:01;7.00;;;4.00;;
77234;SDS011;66253;50.526;14.974;2023-09-18T01:42:31;6.90;;;3.80;;
77234;SDS011;66253;50.526;14.974;2023-09-18T01:45:00;6.20;;;4.20;;
77234;SDS011;66253;50.526;14.974;2023-09-18T01:47:31;6.00;;;4.50;;
77234;SDS011;66253;50.526;14.974;2023-09-18T01:49:59;7.30;;;4.50;;
77234;SDS011;66253;50.526;14.974;2023-09-18T01:52:31;6.30;;;3.50;;
77234;SDS011;66253;50.526;14.974;2023-09-18T01:54:59;6.10;;;3.50;;
77234;SDS011;66253;50.526;14.974;2023-09-18T01:59:55;5.50;;;3.40;;
77234;SDS011;66253;50.526;14.974;2023-09-18T02:02:24;6.10;;;3.50;;
77234;SDS011;66253;50.526;14.974;2023-09-18T02:04:52;8.30;;;4.30;;
77234;SDS011;66253;50.526;14.974;2023-09-18T02:07:20;6.70;;;3.80;;
77234;SDS011;66253;50.526;14.974;2023-09-18T02:09:48;6.80;;;3.90;;
77234;SDS011;66253;50.526;14.974;2023-09-18T02:12:17;7.70;;;3.80;;
77234;SDS011;66253;50.526;14.974;2023-09-18T02:14:45;6.20;;;4.50;;
77234;SDS011;66253;50.526;14.974;2023-09-18T02:17:13;6.10;;;4.30;;
77234;SDS011;66253;50.526;14.974;2023-09-18T02:19:41;6.40;;;4.20;;
77234;SDS011;66253;50.526;14.974;2023-09-18T02:22:10;8.00;;;4.20;;
77234;SDS011;66253;50.526;14.974;2023-09-18T02:24:38;6.90;;;4.30;;
77234;SDS011;66253;50.526;14.974;2023-09-18T02:27:06;6.70;;;4.10;;
77234;SDS011;66253;50.526;14.974;2023-09-18T02:29:34;6.60;;;4.50;;
77234;SDS011;66253;50.526;14.974;2023-09-18T02:32:03;6.70;;;4.10;;
77234;SDS011;66253;50.526;14.974;2023-09-18T02:34:31;5.90;;;3.60;;
77234;SDS011;66253;50.526;14.974;2023-09-18T02:37:00;6.00;;;3.80;;
77234;SDS011;66253;50.526;14.974;2023-09-18T02:39:28;10.70;;;3.90;;
77234;SDS011;66253;50.526;14.974;2023-09-18T02:41:56;7.50;;;4.30;;
77234;SDS011;66253;50.526;14.974;2023-09-18T02:44:24;6.20;;;4.30;;
77234;SDS011;66253;50.526;14.974;2023-09-18T02:46:52;6.00;;;3.70;;
77234;SDS011;66253;50.526;14.974;2023-09-18T02:49:21;8.40;;;3.90;;
77234;SDS011;66253;50.526;14.974;2023-09-18T02:51:49;6.20;;;3.60;;
77234;SDS011;66253;50.526;14.974;2023-09-18T02:54:17;7.20;;;4.00;;
77234;SDS011;66253;50.526;14.974;2023-09-18T02:56:45;6.50;;;3.80;;
77234;SDS011;66253;50.526;14.974;2023-09-18T02:59:14;6.80;;;4.10;;
77234;SDS011;66253;50.526;14.974;2023-09-18T03:01:42;10.10;;;4.40;;
77234;SDS011;66253;50.526;14.974;2023-09-18T03:04:10;6.80;;;3.80;;
77234;SDS011;66253;50.526;14.974;2023-09-18T03:06:39;6.90;;;4.30;;
77234;SDS011;66253;50.526;14.974;2023-09-18T03:09:07;5.60;;;3.70;;
77234;SDS011;66253;50.526;14.974;2023-09-18T03:11:35;7.90;;;4.60;;
77234;SDS011;66253;50.526;14.974;2023-09-18T03:14:03;8.50;;;4.80;;
77234;SDS011;66253;50.526;14.974;2023-09-18T03:16:32;8.50;;;5.10;;
77234;SDS011;66253;50.526;14.974;2023-09-18T03:19:00;6.70;;;4.50;;
77234;SDS011;66253;50.526;14.974;2023-09-18T03:21:29;6.80;;;3.90;;
77234;SDS011;66253;50.526;14.974;2023-09-18T03:23:57;6.10;;;3.80;;
77234;SDS011;66253;50.526;14.974;2023-09-18T03:26:25;7.10;;;4.00;;
77234;SDS011;66253;50.526;14.974;2023-09-18T03:28:53;8.90;;;4.70;;
77234;SDS011;66253;50.526;14.974;2023-09-18T03:31:22;9.20;;;4.10;;
77234;SDS011;66253;50.526;14.974;2023-09-18T03:33:50;7.00;;;4.80;;
77234;SDS011;66253;50.526;14.974;2023-09-18T03:36:19;8.70;;;4.60;;
77234;SDS011;66253;50.526;14.974;2023-09-18T03:38:49;8.00;;;4.90;;
77234;SDS011;66253;50.526;14.974;2023-09-18T03:41:17;7.10;;;4.50;;
77234;SDS011;66253;50.526;14.974;2023-09-18T03:43:45;7.80;;;5.10;;
77234;SDS011;66253;50.526;14.974;2023-09-18T03:46:13;7.00;;;4.60;;
77234;SDS011;66253;50.526;14.974;2023-09-18T03:48:42;7.70;;;4.50;;
77234;SDS011;66253;50.526;14.974;2023-09-18T03:51:10;6.70;;;4.30;;
77234;SDS011;66253;50.526;14.974;2023-09-18T03:53:38;8.40;;;4.30;;
77234;SDS011;66253;50.526;14.974;2023-09-18T03:56:06;6.20;;;3.90;;
77234;SDS011;66253;50.526;14.974;2023-09-18T03:58:34;9.60;;;4.30;;
77234;SDS011;66253;50.526;14.974;2023-09-18T04:01:03;7.50;;;4.40;;
77234;SDS011;66253;50.526;14.974;2023-09-18T04:03:31;6.30;;;4.10;;
77234;SDS011;66253;50.526;14.974;2023-09-18T04:05:59;6.40;;;3.90;;
77234;SDS011;66253;50.526;14.974;2023-09-18T04:08:27;7.10;;;4.40;;
77234;SDS011;66253;50.526;14.974;2023-09-18T04:10:55;8.70;;;4.60;;
77234;SDS011;66253;50.526;14.974;2023-09-18T04:13:24;6.90;;;4.10;;
77234;SDS011;66253;50.526;14.974;2023-09-18T04:15:53;6.20;;;4.20;;
77234;SDS011;66253;50.526;14.974;2023-09-18T04:18:21;8.20;;;4.30;;
77234;SDS011;66253;50.526;14.974;2023-09-18T04:20:49;6.90;;;4.30;;
77234;SDS011;66253;50.526;14.974;2023-09-18T04:23:18;8.80;;;4.80;;
77234;SDS011;66253;50.526;14.974;2023-09-18T04:25:48;6.80;;;4.70;;
77234;SDS011;66253;50.526;14.974;2023-09-18T04:28:17;7.10;;;4.50;;
77234;SDS011;66253;50.526;14.974;2023-09-18T04:33:14;7.00;;;4.30;;
77234;SDS011;66253;50.526;14.974;2023-09-18T04:35:42;9.90;;;5.00;;
77234;SDS011;66253;50.526;14.974;2023-09-18T04:38:11;8.10;;;4.60;;
77234;SDS011;66253;50.526;14.974;2023-09-18T04:40:39;7.80;;;5.10;;
77234;SDS011;66253;50.526;14.974;2023-09-18T04:43:07;8.10;;;5.20;;
77234;SDS011;66253;50.526;14.974;2023-09-18T04:45:36;7.70;;;4.50;;
77234;SDS011;66253;50.526;14.974;2023-09-18T04:48:04;7.30;;;4.50;;
77234;SDS011;66253;50.526;14.974;2023-09-18T04:50:33;7.20;;;4.40;;
77234;SDS011;66253;50.526;14.974;2023-09-18T04:53:01;8.80;;;5.40;;
77234;SDS011;66253;50.526;14.974;2023-09-18T04:55:30;8.00;;;5.20;;
77234;SDS011;66253;50.526;14.974;2023-09-18T04:57:58;7.40;;;5.10;;
77234;SDS011;66253;50.526;14.974;2023-09-18T05:00:27;7.20;;;4.70;;
77234;SDS011;66253;50.526;14.974;2023-09-18T05:02:55;7.20;;;4.80;;
77234;SDS011;66253;50.526;14.974;2023-09-18T05:05:24;7.90;;;5.10;;
77234;SDS011;66253;50.526;14.974;2023-09-18T05:07:52;10.60;;;6.00;;
77234;SDS011;66253;50.526;14.974;2023-09-18T05:10:20;8.70;;;5.30;;
77234;SDS011;66253;50.526;14.974;2023-09-18T05:12:49;9.00;;;6.20;;
77234;SDS011;66253;50.526;14.974;2023-09-18T05:15:17;7.40;;;5.20;;
77234;SDS011;66253;50.526;14.974;2023-09-18T05:17:47;8.90;;;5.10;;
77234;SDS011;66253;50.526;14.974;2023-09-18T05:20:16;6.00;;;4.20;;
77234;SDS011;66253;50.526;14.974;2023-09-18T05:22:44;8.10;;;4.80;;
77234;SDS011;66253;50.526;14.974;2023-09-18T05:25:13;8.40;;;4.60;;
77234;SDS011;66253;50.526;14.974;2023-09-18T05:27:41;6.70;;;4.40;;
77234;SDS011;66253;50.526;14.974;2023-09-18T05:30:10;7.00;;;4.50;;
77234;SDS011;66253;50.526;14.974;2023-09-18T05:32:40;6.90;;;4.80;;
77234;SDS011;66253;50.526;14.974;2023-09-18T05:35:09;9.10;;;5.10;;
77234;SDS011;66253;50.526;14.974;2023-09-18T05:37:38;7.30;;;4.60;;
77234;SDS011;66253;50.526;14.974;2023-09-18T05:40:07;7.70;;;4.80;;
77234;SDS011;66253;50.526;14.974;2023-09-18T05:42:37;7.90;;;4.80;;
77234;SDS011;66253;50.526;14.974;2023-09-18T05:45:07;7.70;;;5.10;;
77234;SDS011;66253;50.526;14.974;2023-09-18T05:47:37;8.30;;;5.80;;
77234;SDS011;66253;50.526;14.974;2023-09-18T05:50:06;7.10;;;4.50;;
77234;SDS011;66253;50.526;14.974;2023-09-18T05:52:36;7.50;;;4.90;;
77234;SDS011;66253;50.526;14.974;2023-09-18T05:55:05;7.90;;;4.80;;
77234;SDS011;66253;50.526;14.974;2023-09-18T05:57:34;8.10;;;4.80;;
77234;SDS011;66253;50.526;14.974;2023-09-18T06:00:03;8.20;;;5.20;;
77234;SDS011;66253;50.526;14.974;2023-09-18T06:02:32;9.20;;;5.70;;
77234;SDS011;66253;50.526;14.974;2023-09-18T06:05:01;8.20;;;5.40;;
77234;SDS011;66253;50.526;14.974;2023-09-18T06:07:30;8.90;;;6.10;;
77234;SDS011;66253;50.526;14.974;2023-09-18T06:09:59;10.00;;;6.30;;
77234;SDS011;66253;50.526;14.974;2023-09-18T06:12:27;9.50;;;6.10;;
77234;SDS011;66253;50.526;14.974;2023-09-18T06:14:55;9.10;;;6.40;;
77234;SDS011;66253;50.526;14.974;2023-09-18T06:17:23;8.90;;;6.00;;
77234;SDS011;66253;50.526;14.974;2023-09-18T06:19:52;10.20;;;5.70;;
77234;SDS011;66253;50.526;14.974;2023-09-18T06:22:20;10.20;;;7.20;;
77234;SDS011;66253;50.526;14.974;2023-09-18T06:24:49;9.60;;;6.50;;
77234;SDS011;66253;50.526;14.974;2023-09-18T06:27:17;10.10;;;6.10;;
77234;SDS011;66253;50.526;14.974;2023-09-18T06:29:45;9.50;;;6.90;;
77234;SDS011;66253;50.526;14.974;2023-09-18T06:32:13;9.70;;;6.00;;
77234;SDS011;66253;50.526;14.974;2023-09-18T06:34:41;9.40;;;6.30;;
77234;SDS011;66253;50.526;14.974;2023-09-18T06:37:10;10.40;;;6.40;;
77234;SDS011;66253;50.526;14.974;2023-09-18T06:39:38;9.20;;;6.30;;
77234;SDS011;66253;50.526;14.974;2023-09-18T06:42:06;8.50;;;7.00;;
77234;SDS011;66253;50.526;14.974;2023-09-18T06:44:35;8.60;;;7.10;;
77234;SDS011;66253;50.526;14.974;2023-09-18T06:47:04;10.10;;;6.30;;
77234;SDS011;66253;50.526;14.974;2023-09-18T06:49:32;11.40;;;7.00;;
77234;SDS011;66253;50.526;14.974;2023-09-18T06:52:00;9.40;;;6.70;;
77234;SDS011;66253;50.526;14.974;2023-09-18T06:54:29;9.50;;;6.50;;
77234;SDS011;66253;50.526;14.974;2023-09-18T06:56:57;8.30;;;6.00;;
77234;SDS011;66253;50.526;14.974;2023-09-18T06:59:25;9.10;;;5.90;;
77234;SDS011;66253;50.526;14.974;2023-09-18T07:01:53;9.70;;;5.70;;
77234;SDS011;66253;50.526;14.974;2023-09-18T07:04:22;8.10;;;5.70;;
77234;SDS011;66253;50.526;14.974;2023-09-18T07:06:50;7.80;;;5.20;;
77234;SDS011;66253;50.526;14.974;2023-09-18T07:09:18;6.60;;;5.20;;
77234;SDS011;66253;50.526;14.974;2023-09-18T07:11:46;8.10;;;5.80;;
77234;SDS011;66253;50.526;14.974;2023-09-18T07:14:15;7.90;;;5.30;;
77234;SDS011;66253;50.526;14.974;2023-09-18T07:16:43;8.50;;;6.10;;
77234;SDS011;66253;50.526;14.974;2023-09-18T07:19:11;9.00;;;6.50;;
77234;SDS011;66253;50.526;14.974;2023-09-18T07:21:39;8.80;;;7.50;;
77234;SDS011;66253;50.526;14.974;2023-09-18T07:24:08;9.20;;;5.70;;
77234;SDS011;66253;50.526;14.974;2023-09-18T07:26:36;9.20;;;5.30;;
77234;SDS011;66253;50.526;14.974;2023-09-18T07:29:04;8.30;;;5.30;;
77234;SDS011;66253;50.526;14.974;2023-09-18T07:31:33;7.90;;;4.80;;
77234;SDS011;66253;50.526;14.974;2023-09-18T07:34:01;7.40;;;5.50;;
77234;SDS011;66253;50.526;14.974;2023-09-18T07:36:29;8.40;;;5.20;;
77234;SDS011;66253;50.526;14.974;2023-09-18T07:38:57;8.30;;;5.30;;
77234;SDS011;66253;50.526;14.974;2023-09-18T07:41:26;8.40;;;5.10;;
77234;SDS011;66253;50.526;14.974;2023-09-18T07:43:54;8.00;;;5.60;;
77234;SDS011;66253;50.526;14.974;2023-09-18T07:46:22;7.60;;;5.80;;
77234;SDS011;66253;50.526;14.974;2023-09-18T07:48:50;8.90;;;5.60;;
77234;SDS011;66253;50.526;14.974;2023-09-18T07:51:19;9.30;;;5.60;;
77234;SDS011;66253;50.526;14.974;2023-09-18T07:53:47;9.30;;;5.90;;
77234;SDS011;66253;50.526;14.974;2023-09-18T07:56:15;8.60;;;6.50;;
77234;SDS011;66253;50.526;14.974;2023-09-18T07:58:43;7.80;;;5.70;;
77234;SDS011;66253;50.526;14.974;2023-09-18T08:01:12;9.30;;;5.50;;
77234;SDS011;66253;50.526;14.974;2023-09-18T08:03:40;8.50;;;5.70;;
77234;SDS011;66253;50.526;14.974;2023-09-18T08:06:08;10.50;;;6.20;;
77234;SDS011;66253;50.526;14.974;2023-09-18T08:08:36;8.80;;;5.40;;
77234;SDS011;66253;50.526;14.974;2023-09-18T08:11:08;12.10;;;6.30;;
77234;SDS011;66253;50.526;14.974;2023-09-18T08:13:36;7.70;;;5.90;;
77234;SDS011;66253;50.526;14.974;2023-09-18T08:16:05;9.70;;;6.00;;
77234;SDS011;66253;50.526;14.974;2023-09-18T08:18:33;8.90;;;5.90;;
77234;SDS011;66253;50.526;14.974;2023-09-18T08:21:02;8.50;;;5.70;;
77234;SDS011;66253;50.526;14.974;2023-09-18T08:23:30;7.20;;;6.10;;
77234;SDS011;66253;50.526;14.974;2023-09-18T08:25:58;9.20;;;6.60;;
77234;SDS011;66253;50.526;14.974;2023-09-18T08:28:26;10.40;;;6.10;;
77234;SDS011;66253;50.526;14.974;2023-09-18T08:30:55;9.20;;;5.40;;
77234;SDS011;66253;50.526;14.974;2023-09-18T08:33:23;9.30;;;6.10;;
77234;SDS011;66253;50.526;14.974;2023-09-18T08:35:52;8.90;;;5.80;;
77234;SDS011;66253;50.526;14.974;2023-09-18T08:38:20;8.60;;;6.20;;
77234;SDS011;66253;50.526;14.974;2023-09-18T08:40:48;10.80;;;6.40;;
77234;SDS011;66253;50.526;14.974;2023-09-18T08:43:17;9.50;;;5.90;;
77234;SDS011;66253;50.526;14.974;2023-09-18T08:45:51;9.00;;;6.80;;
77234;SDS011;66253;50.526;14.974;2023-09-18T08:48:20;8.40;;;6.80;;
77234;SDS011;66253;50.526;14.974;2023-09-18T08:50:51;11.30;;;6.90;;
77234;SDS011;66253;50.526;14.974;2023-09-18T08:53:19;7.90;;;5.70;;
77234;SDS011;66253;50.526;14.974;2023-09-18T08:55:48;12.20;;;6.20;;
77234;SDS011;66253;50.526;14.974;2023-09-18T08:58:16;8.50;;;5.60;;
77234;SDS011;66253;50.526;14.974;2023-09-18T09:00:45;7.60;;;5.80;;
77234;SDS011;66253;50.526;14.974;2023-09-18T09:03:13;10.50;;;6.10;;
77234;SDS011;66253;50.526;14.974;2023-09-18T09:05:42;8.20;;;6.10;;
77234;SDS011;66253;50.526;14.974;2023-09-18T09:08:13;9.90;;;6.50;;
77234;SDS011;66253;50.526;14.974;2023-09-18T09:10:41;8.70;;;6.30;;
77234;SDS011;66253;50.526;14.974;2023-09-18T09:13:10;8.50;;;6.10;;
77234;SDS011;66253;50.526;14.974;2023-09-18T09:15:44;8.50;;;6.10;;
77234;SDS011;66253;50.526;14.974;2023-09-18T09:18:14;10.30;;;6.60;;
77234;SDS011;66253;50.526;14.974;2023-09-18T09:20:42;8.60;;;6.70;;
77234;SDS011;66253;50.526;14.974;2023-09-18T09:23:20;8.60;;;6.10;;
77234;SDS011;66253;50.526;14.974;2023-09-18T09:25:49;9.40;;;7.00;;
77234;SDS011;66253;50.526;14.974;2023-09-18T09:28:26;9.10;;;6.50;;
77234;SDS011;66253;50.526;14.974;2023-09-18T09:31:00;7.80;;;6.40;;
77234;SDS011;66253;50.526;14.974;2023-09-18T09:33:30;8.80;;;6.30;;
77234;SDS011;66253;50.526;14.974;2023-09-18T09:35:58;8.90;;;6.00;;
77234;SDS011;66253;50.526;14.974;2023-09-18T09:38:29;8.90;;;6.10;;
77234;SDS011;66253;50.526;14.974;2023-09-18T09:40:58;11.10;;;7.00;;
77234;SDS011;66253;50.526;14.974;2023-09-18T09:43:29;8.80;;;6.10;;
77234;SDS011;66253;50.526;14.974;2023-09-18T09:45:59;9.60;;;6.10;;
77234;SDS011;66253;50.526;14.974;2023-09-18T09:48:28;9.70;;;6.70;;
77234;SDS011;66253;50.526;14.974;2023-09-18T09:50:58;8.00;;;6.00;;
77234;SDS011;66253;50.526;14.974;2023-09-18T09:53:43;10.20;;;6.40;;
77234;SDS011;66253;50.526;14.974;2023-09-18T09:56:12;9.70;;;6.30;;
77234;SDS011;66253;50.526;14.974;2023-09-18T10:01:08;8.90;;;6.00;;
77234;SDS011;66253;50.526;14.974;2023-09-18T10:03:39;10.90;;;7.40;;
77234;SDS011;66253;50.526;14.974;2023-09-18T10:06:07;10.90;;;8.30;;
77234;SDS011;66253;50.526;14.974;2023-09-18T10:08:37;9.80;;;7.30;;
77234;SDS011;66253;50.526;14.974;2023-09-18T10:11:07;8.20;;;5.90;;
77234;SDS011;66253;50.526;14.974;2023-09-18T10:13:40;10.80;;;7.00;;
77234;SDS011;66253;50.526;14.974;2023-09-18T10:16:12;9.30;;;6.20;;
77234;SDS011;66253;50.526;14.974;2023-09-18T10:18:45;9.60;;;6.60;;
77234;SDS011;66253;50.526;14.974;2023-09-18T10:21:23;10.00;;;6.10;;
77234;SDS011;66253;50.526;14.974;2023-09-18T10:23:59;10.00;;;6.60;;
77234;SDS011;66253;50.526;14.974;2023-09-18T10:26:31;10.90;;;8.10;;
77234;SDS011;66253;50.526;14.974;2023-09-18T10:29:01;11.10;;;6.30;;
77234;SDS011;66253;50.526;14.974;2023-09-18T10:31:33;10.80;;;6.80;;
77234;SDS011;66253;50.526;14.974;2023-09-18T10:34:02;11.50;;;7.10;;
77234;SDS011;66253;50.526;14.974;2023-09-18T10:36:32;10.10;;;6.00;;
77234;SDS011;66253;50.526;14.974;2023-09-18T10:39:04;8.90;;;6.70;;
77234;SDS011;66253;50.526;14.974;2023-09-18T10:41:35;9.10;;;6.70;;
77234;SDS011;66253;50.526;14.974;2023-09-18T10:46:31;7.00;;;5.70;;
77234;SDS011;66253;50.526;14.974;2023-09-18T10:48:59;10.40;;;6.30;;
77234;SDS011;66253;50.526;14.974;2023-09-18T10:51:28;8.90;;;6.40;;
77234;SDS011;66253;50.526;14.974;2023-09-18T10:53:58;8.90;;;5.90;;
77234;SDS011;66253;50.526;14.974;2023-09-18T10:56:26;8.80;;;6.60;;
77234;SDS011;66253;50.526;14.974;2023-09-18T10:58:59;8.50;;;6.30;;
77234;SDS011;66253;50.526;14.974;2023-09-18T11:01:28;8.40;;;6.20;;
77234;SDS011;66253;50.526;14.974;2023-09-18T11:03:59;9.90;;;6.60;;
77234;SDS011;66253;50.526;14.974;2023-09-18T11:06:29;9.20;;;6.00;;
77234;SDS011;66253;50.526;14.974;2023-09-18T11:09:19;8.50;;;5.90;;
77234;SDS011;66253;50.526;14.974;2023-09-18T11:11:53;9.80;;;6.10;;
77234;SDS011;66253;50.526;14.974;2023-09-18T11:14:38;11.00;;;6.70;;
77234;SDS011;66253;50.526;14.974;2023-09-18T11:20:09;10.00;;;6.90;;
77234;SDS011;66253;50.526;14.974;2023-09-18T11:22:47;7.90;;;5.90;;
77234;SDS011;66253;50.526;14.974;2023-09-18T11:25:31;10.40;;;6.70;;
77234;SDS011;66253;50.526;14.974;2023-09-18T11:28:04;9.90;;;6.90;;
77234;SDS011;66253;50.526;14.974;2023-09-18T11:30:34;12.40;;;6.30;;
77234;SDS011;66253;50.526;14.974;2023-09-18T11:33:03;7.40;;;5.30;;
77234;SDS011;66253;50.526;14.974;2023-09-18T11:35:32;9.50;;;6.70;;
77234;SDS011;66253;50.526;14.974;2023-09-18T11:38:04;8.60;;;5.90;;
77234;SDS011;66253;50.526;14.974;2023-09-18T11:40:35;8.00;;;6.20;;
77234;SDS011;66253;50.526;14.974;2023-09-18T11:43:24;10.10;;;7.20;;
77234;SDS011;66253;50.526;14.974;2023-09-18T11:45:54;9.50;;;5.60;;
77234;SDS011;66253;50.526;14.974;2023-09-18T11:48:23;9.00;;;6.60;;
77234;SDS011;66253;50.526;14.974;2023-09-18T11:50:52;9.90;;;6.50;;
77234;SDS011;66253;50.526;14.974;2023-09-18T11:53:20;8.80;;;5.50;;
77234;SDS011;66253;50.526;14.974;2023-09-18T11:55:52;9.10;;;4.30;;
77234;SDS011;66253;50.526;14.974;2023-09-18T11:58:21;6.80;;;4.50;;
77234;SDS011;66253;50.526;14.974;2023-09-18T12:00:49;6.90;;;4.80;;
77234;SDS011;66253;50.526;14.974;2023-09-18T12:03:19;7.00;;;4.70;;
77234;SDS011;66253;50.526;14.974;2023-09-18T12:05:48;8.60;;;5.50;;
77234;SDS011;66253;50.526;14.974;2023-09-18T12:08:21;6.30;;;5.10;;
77234;SDS011;66253;50.526;14.974;2023-09-18T12:10:50;8.70;;;5.00;;
77234;SDS011;66253;50.526;14.974;2023-09-18T12:15:45;6.80;;;3.60;;
77234;SDS011;66253;50.526;14.974;2023-09-18T12:18:14;6.30;;;4.20;;
77234;SDS011;66253;50.526;14.974;2023-09-18T12:20:46;8.30;;;5.20;;
77234;SDS011;66253;50.526;14.974;2023-09-18T12:23:15;7.00;;;4.50;;
77234;SDS011;66253;50.526;14.974;2023-09-18T12:25:45;6.50;;;4.30;;
77234;SDS011;66253;50.526;14.974;2023-09-18T12:28:16;7.10;;;4.10;;
77234;SDS011;66253;50.526;14.974;2023-09-18T12:30:45;7.40;;;4.30;;
77234;SDS011;66253;50.526;14.974;2023-09-18T12:33:14;8.10;;;4.90;;
77234;SDS011;66253;50.526;14.974;2023-09-18T12:35:43;7.70;;;4.70;;
77234;SDS011;66253;50.526;14.974;2023-09-18T12:38:15;7.40;;;4.80;;
77234;SDS011;66253;50.526;14.974;2023-09-18T12:40:44;8.80;;;4.60;;
77234;SDS011;66253;50.526;14.974;2023-09-18T12:43:13;8.50;;;5.50;;
77234;SDS011;66253;50.526;14.974;2023-09-18T12:45:41;6.90;;;4.80;;
77234;SDS011;66253;50.526;14.974;2023-09-18T12:50:40;9.30;;;4.50;;
77234;SDS011;66253;50.526;14.974;2023-09-18T12:53:09;10.40;;;4.70;;
77234;SDS011;66253;50.526;14.974;2023-09-18T12:55:38;9.50;;;5.10;;
77234;SDS011;66253;50.526;14.974;2023-09-18T12:58:08;7.00;;;4.80;;
77234;SDS011;66253;50.526;14.974;2023-09-18T13:00:40;8.90;;;4.60;;
77234;SDS011;66253;50.526;14.974;2023-09-18T13:03:13;10.30;;;5.00;;
77234;SDS011;66253;50.526;14.974;2023-09-18T13:08:08;14.60;;;5.10;;
77234;SDS011;66253;50.526;14.974;2023-09-18T13:10:44;11.80;;;6.00;;
77234;SDS011;66253;50.526;14.974;2023-09-18T13:13:17;7.10;;;4.30;;
77234;SDS011;66253;50.526;14.974;2023-09-18T13:15:46;10.00;;;4.90;;
77234;SDS011;66253;50.526;14.974;2023-09-18T13:18:22;8.90;;;5.00;;
77234;SDS011;66253;50.526;14.974;2023-09-18T13:20:50;20.30;;;5.10;;
77234;SDS011;66253;50.526;14.974;2023-09-18T13:23:19;7.80;;;4.60;;
77234;SDS011;66253;50.526;14.974;2023-09-18T13:25:58;8.20;;;5.60;;
77234;SDS011;66253;50.526;14.974;2023-09-18T13:28:28;8.70;;;4.50;;
77234;SDS011;66253;50.526;14.974;2023-09-18T13:30:57;6.80;;;4.60;;
77234;SDS011;66253;50.526;14.974;2023-09-18T13:33:25;8.30;;;4.60;;
77234;SDS011;66253;50.526;14.974;2023-09-18T13:35:54;5.60;;;4.30;;
77234;SDS011;66253;50.526;14.974;2023-09-18T13:38:22;8.60;;;4.70;;
77234;SDS011;66253;50.526;14.974;2023-09-18T13:40:50;7.80;;;4.40;;
77234;SDS011;66253;50.526;14.974;2023-09-18T13:43:19;6.90;;;4.50;;
77234;SDS011;66253;50.526;14.974;2023-09-18T13:45:48;6.30;;;5.20;;
77234;SDS011;66253;50.526;14.974;2023-09-18T13:50:44;6.90;;;5.00;;
77234;SDS011;66253;50.526;14.974;2023-09-18T13:53:13;7.50;;;5.30;;
77234;SDS011;66253;50.526;14.974;2023-09-18T13:55:41;7.10;;;4.60;;
77234;SDS011;66253;50.526;14.974;2023-09-18T13:58:09;7.30;;;5.50;;
77234;SDS011;66253;50.526;14.974;2023-09-18T14:00:38;7.10;;;5.50;;
77234;SDS011;66253;50.526;14.974;2023-09-18T14:03:07;7.20;;;5.10;;
77234;SDS011;66253;50.526;14.974;2023-09-18T14:05:36;8.00;;;5.40;;
77234;SDS011;66253;50.526;14.974;2023-09-18T14:08:04;6.40;;;5.10;;
77234;SDS011;66253;50.526;14.974;2023-09-18T14:10:34;9.30;;;5.90;;
77234;SDS011;66253;50.526;14.974;2023-09-18T14:13:02;6.90;;;4.60;;
77234;SDS011;66253;50.526;14.974;2023-09-18T14:15:31;10.60;;;5.40;;
77234;SDS011;66253;50.526;14.974;2023-09-18T14:17:59;9.10;;;4.90;;
77234;SDS011;66253;50.526;14.974;2023-09-18T14:20:27;10.00;;;5.40;;
77234;SDS011;66253;50.526;14.974;2023-09-18T14:22:55;9.60;;;5.50;;
77234;SDS011;66253;50.526;14.974;2023-09-18T14:25:24;7.30;;;5.10;;
77234;SDS011;66253;50.526;14.974;2023-09-18T14:27:52;8.00;;;5.40;;
77234;SDS011;66253;50.526;14.974;2023-09-18T14:30:20;6.60;;;5.40;;
77234;SDS011;66253;50.526;14.974;2023-09-18T14:32:49;11.30;;;6.20;;
77234;SDS011;66253;50.526;14.974;2023-09-18T14:35:17;9.40;;;5.70;;
77234;SDS011;66253;50.526;14.974;2023-09-18T14:37:45;7.70;;;4.70;;
77234;SDS011;66253;50.526;14.974;2023-09-18T14:40:13;8.70;;;5.40;;
77234;SDS011;66253;50.526;14.974;2023-09-18T14:42:42;6.50;;;4.70;;
77234;SDS011;66253;50.526;14.974;2023-09-18T14:45:10;7.30;;;5.20;;
77234;SDS011;66253;50.526;14.974;2023-09-18T14:47:39;9.50;;;5.50;;
77234;SDS011;66253;50.526;14.974;2023-09-18T14:50:07;8.10;;;4.90;;
77234;SDS011;66253;50.526;14.974;2023-09-18T14:52:36;9.60;;;5.40;;
77234;SDS011;66253;50.526;14.974;2023-09-18T14:55:04;10.50;;;5.60;;
77234;SDS011;66253;50.526;14.974;2023-09-18T14:57:33;10.40;;;4.80;;
77234;SDS011;66253;50.526;14.974;2023-09-18T15:00:01;10.10;;;5.20;;
77234;SDS011;66253;50.526;14.974;2023-09-18T15:02:31;9.60;;;4.90;;
77234;SDS011;66253;50.526;14.974;2023-09-18T15:04:59;6.50;;;4.90;;
77234;SDS011;66253;50.526;14.974;2023-09-18T15:07:29;8.30;;;4.80;;
77234;SDS011;66253;50.526;14.974;2023-09-18T15:09:57;10.50;;;5.30;;